Waupaca, WI (54981)

1:22 PM CST on December 09, 2016 (GMT -0600)
Old Taylor Lake | | Change Station
Active Advisory: Winter Storm Watch

Elev 893 ft 44.34 °N, 89.11 °W | Updated 7 seconds ago

Clear
Clear
21.5 °F
Feels Like 16 °F
N
4.0
Wind Variable Wind from South
Gusts 9.0 mph

Today
High -- | Low -- °F
--% Chance of Precip.
Yesterday
High -- | Low -- °F
Precip. -- in
Pressure 30.45 in
Visibility 10.0 miles
Clouds Clear
Windchill 16 °F
Dew Point 12 °F
Humidity 66%
Rainfall 0.00 in
Snow Depth Not available.
7:20 AM 4:16 PM
Waxing Gibbous, 76% visible
METAR KPCZ 091915Z AUTO 27008KT 10SM CLR M03/M12 A3045 RMK AO2 T10351121
Pressure 30.45 in
Visibility 10.0 miles
Clouds Clear
Windchill 16 °F
Dew Point 12 °F
Humidity 66%
Rainfall 0.00 in
Snow Depth Not available.
7:20 AM 4:16 PM
Waxing Gibbous, 76% visible
METAR KPCZ 091915Z AUTO 27008KT 10SM CLR M03/M12 A3045 RMK AO2 T10351121

10-Day Weather Forecast

Almanac

Astronomy

Dec. 09, 2016 Rise Set
Actual Time
Civil Twilight
Nautical Twilight
Astronomical Twilight
Moon
Length of Visible Light
Length of Day
Tomorrow will be .
, % of the Moon is Illuminated

Today's Extremes

State Highs State Lows

Community

WunderPhotos

Upload Photos

1,956,499 photos uploaded!

WunderBlog® & News

Nearby

Air Quality

  Air Quality AQ Index Pollutant
Not available.

Snow Depth

Station Depth Elevation

Earthquake Activity

City Distance Mag. Time & Date
Minimum magnitude displayed is 2.5.

Coastal Water Temperatures

Place Temperature

Stations

Nearby Weather Stations

Station Location Temp. Windchill Dew Point Humidity Wind Precip. Elev Updated Type
                   

Watches & Warnings

Winter Storm Watch
Issued: 12:11 PM CST Dec. 9, 2016 – National Weather Service

... Winter Storm Watch in effect from Saturday evening through
Sunday evening...

The National Weather Service in Green Bay has issued a Winter
Storm Watch... which is in effect from Saturday evening through
Sunday evening.

* Timing... early Saturday night through Sunday night. The heaviest
snow is expected to fall Sunday.

* Snow accumulations... 6 to 8 inches.

* Main impact... hazardous travel will develop Saturday night and
continue through Sunday. Slick and snow covered roads are
expected with reduced visibilities at times with any heavier
snow.

Precautionary/preparedness actions...

A Winter Storm Watch means there is a potential for significant
snow accumulations that may impact travel. Continue to monitor the
latest forecasts.